Aviation Digital Data Service (ADDS)

Output produced by METARs form (1943 UTC 23 October 2021)
found at http://www.aviationweather.gov/metar/data/
 
METAR text: EDDK 231920Z 10003KT 070V140 CAVOK 07/04 Q1028 NOSIG
Conditions at: EDDK (KOELN/BONN , DE) observed 1920 UTC 23 October 2021
Temperature: 7.0°C (45°F)
Dewpoint: 4.0°C (39°F) [RH = 81%]
Pressure (altimeter): 30.35 inches Hg (1028.0 mb)
Winds: from the E (100 degrees) at 3 MPH (3 knots; 1.5 m/s)
Visibility: 6 or more miles (10+ km)
Ceiling: ceiling and visibility are OK
Clouds: unknown
Weather: no significant weather observed at this time

METAR text: EDDK 231850Z 11004KT 9999 FEW045 08/04 Q1029 NOSIG
Conditions at: EDDK (KOELN/BONN , DE) observed 1850 UTC 23 October 2021
Temperature: 8.0°C (46°F)
Dewpoint: 4.0°C (39°F) [RH = 76%]
Pressure (altimeter): 30.38 inches Hg (1029.0 mb)
Winds: from the ESE (110 degrees) at 5 MPH (4 knots; 2.1 m/s)
Visibility: 6 or more miles (10+ km)
Ceiling: at least 12,000 feet AGL
Clouds: few clouds at 4500 feet AGL
Weather: no significant weather observed at this time

Forecast for: EDDK (KOELN/BONN , DE)
Text: TAF EDDK 231700Z 2318/2424 12005KT 9999 BKN040
Forecast period: 1800 UTC 23 October 2021 to 0800 UTC 24 October 2021
Forecast type: FROM: standard forecast or significant change
Winds: from the ESE (120 degrees) at 6 MPH (5 knots; 2.6 m/s)
Visibility: 6 or more miles (10+ km)
Ceiling: 4000 feet AGL
Clouds: broken clouds at 4000 feet AGL
Weather: no significant weather forecast for this period
Text: BECMG 2408/2411 14011KT
Forecast period: 0800 to 1800 UTC 24 October 2021
Forecast type: BECOMING: Conditions expected to become as follows by 1100 UTC 24 October 2021
Winds: from the SE (140 degrees) at 13 MPH (11 knots; 5.7 m/s)
Visibility: 6 or more miles (10+ km)
Ceiling: 4000 feet AGL
Clouds: broken clouds at 4000 feet AGL
Weather: no significant weather forecast for this period
Text: BECMG 2418/2420 13006KT
Forecast period: 1800 UTC 24 October 2021 to 0000 UTC 25 October 2021
Forecast type: BECOMING: Conditions expected to become as follows by 2000 UTC 24 October 2021
Winds: from the SE (130 degrees) at 7 MPH (6 knots; 3.1 m/s)
Visibility: 6 or more miles (10+ km)
Ceiling: 4000 feet AGL
Clouds: broken clouds at 4000 feet AGL
Weather: no significant weather forecast for this period

Forecast for: EDGS (SIEGERLAND , DE)
Text: TAF EDGS 231700Z 2318/2403 VRB03KT CAVOK
Forecast period: 1800 to 2200 UTC 23 October 2021
Forecast type: FROM: standard forecast or significant change
Winds: variable direction winds at 3 MPH (3 knots; 1.5 m/s)
Visibility: 6 or more miles (10+ km)
Ceiling: unknown
Clouds: missing
Weather: NSW  (no significant weather)
Text: BECMG 2322/2324 14005KT
Forecast period: 2200 UTC 23 October 2021 to 0300 UTC 24 October 2021
Forecast type: BECOMING: Conditions expected to become as follows by 0000 UTC 24 October 2021
Winds: from the SE (140 degrees) at 6 MPH (5 knots; 2.6 m/s)
Visibility: 6 or more miles (10+ km)
Ceiling: unknown
Clouds: missing
Weather: NSW  (no significant weather)
Text: PROB30
Forecast period: 0000 to 0300 UTC 24 October 2021
Forecast type: TEMPORARY: The following changes expected for less than half the time period
Visibility: 2.49 miles (4.01 km)
Ceiling: unknown
Clouds: missing
Weather: BR  (mist)

METAR text: EDLW 231920Z 15006KT CAVOK 06/03 Q1028
Conditions at: EDLW (DORTMUND/WICKEDE, DE) observed 1920 UTC 23 October 2021
Temperature: 6.0°C (43°F)
Dewpoint: 3.0°C (37°F) [RH = 81%]
Pressure (altimeter): 30.35 inches Hg (1028.0 mb)
Winds: from the SSE (150 degrees) at 7 MPH (6 knots; 3.1 m/s)
Visibility: 6 or more miles (10+ km)
Ceiling: ceiling and visibility are OK
Clouds: unknown
Weather: no significant weather observed at this time

METAR text: EDLW 231850Z 15006KT CAVOK 05/03 Q1028
Conditions at: EDLW (DORTMUND/WICKEDE, DE) observed 1850 UTC 23 October 2021
Temperature: 5.0°C (41°F)
Dewpoint: 3.0°C (37°F) [RH = 87%]
Pressure (altimeter): 30.35 inches Hg (1028.0 mb)
Winds: from the SSE (150 degrees) at 7 MPH (6 knots; 3.1 m/s)
Visibility: 6 or more miles (10+ km)
Ceiling: ceiling and visibility are OK
Clouds: unknown
Weather: no significant weather observed at this time

Forecast for: EDLW (DORTMUND/WICKEDE, DE)
Text: TAF EDLW 231700Z 2318/2418 16006KT CAVOK
Forecast period: 1800 UTC 23 October 2021 to 1800 UTC 24 October 2021
Forecast type: FROM: standard forecast or significant change
Winds: from the SSE (160 degrees) at 7 MPH (6 knots; 3.1 m/s)
Visibility: 6 or more miles (10+ km)
Ceiling: unknown
Clouds: missing
Weather: NSW  (no significant weather)

METAR text: EDDL 231920Z 15006KT CAVOK 08/05 Q1028 NOSIG
Conditions at: EDDL (DUESSELDORF , DE) observed 1920 UTC 23 October 2021
Temperature: 8.0°C (46°F)
Dewpoint: 5.0°C (41°F) [RH = 81%]
Pressure (altimeter): 30.35 inches Hg (1028.0 mb)
Winds: from the SSE (150 degrees) at 7 MPH (6 knots; 3.1 m/s)
Visibility: 6 or more miles (10+ km)
Ceiling: ceiling and visibility are OK
Clouds: unknown
Weather: no significant weather observed at this time

METAR text: EDDL 231850Z 15007KT CAVOK 07/05 Q1028 NOSIG
Conditions at: EDDL (DUESSELDORF , DE) observed 1850 UTC 23 October 2021
Temperature: 7.0°C (45°F)
Dewpoint: 5.0°C (41°F) [RH = 87%]
Pressure (altimeter): 30.35 inches Hg (1028.0 mb)
Winds: from the SSE (150 degrees) at 8 MPH (7 knots; 3.6 m/s)
Visibility: 6 or more miles (10+ km)
Ceiling: ceiling and visibility are OK
Clouds: unknown
Weather: no significant weather observed at this time

Forecast for: EDDL (DUESSELDORF , DE)
Text: TAF EDDL 231700Z 2318/2424 15005KT 9999 FEW025
Forecast period: 1800 to 2000 UTC 23 October 2021
Forecast type: FROM: standard forecast or significant change
Winds: from the SSE (150 degrees) at 6 MPH (5 knots; 2.6 m/s)
Visibility: 6 or more miles (10+ km)
Ceiling: at least 12,000 feet AGL
Clouds: few clouds at 2500 feet AGL
Weather: no significant weather forecast for this period
Text: BECMG 2320/2323 15010KT
Forecast period: 2000 UTC 23 October 2021 to 0000 UTC 25 October 2021
Forecast type: BECOMING: Conditions expected to become as follows by 2300 UTC 23 October 2021
Winds: from the SSE (150 degrees) at 12 MPH (10 knots; 5.1 m/s)
Visibility: 6 or more miles (10+ km)
Ceiling: at least 12,000 feet AGL
Clouds: few clouds at 2500 feet AGL
Weather: no significant weather forecast for this period